createdAt,value
2023-04-27T00:03:16.798Z,70.22
2023-04-27T00:08:19.860Z,69.85
2023-04-27T00:13:23.732Z,68.90
2023-04-27T00:18:26.411Z,69.65
2023-04-27T00:23:28.851Z,70.08
2023-04-27T00:28:31.695Z,69.88
2023-04-27T00:33:34.501Z,69.33
2023-04-27T00:38:38.005Z,69.17
2023-04-27T00:43:45.911Z,68.77
2023-04-27T00:48:48.819Z,68.50
2023-04-27T00:53:54.170Z,68.26
2023-04-27T00:58:57.108Z,67.26
2023-04-27T01:04:01.988Z,67.86
2023-04-27T01:09:06.488Z,67.50
2023-04-27T01:14:09.836Z,68.52
2023-04-27T01:19:13.571Z,68.06
2023-04-27T01:24:17.483Z,67.67
2023-04-27T01:29:22.249Z,68.54
2023-04-27T01:34:25.870Z,68.50
2023-04-27T01:39:28.195Z,68.82
2023-04-27T01:44:31.159Z,69.08
2023-04-27T01:49:34.006Z,69.03
2023-04-27T01:54:36.956Z,69.27
2023-04-27T01:59:41.780Z,69.90
2023-04-27T02:04:45.543Z,69.15
2023-04-27T02:09:47.942Z,69.22
2023-04-27T02:14:50.706Z,69.53
2023-04-27T02:19:53.377Z,69.88
2023-04-27T02:24:56.431Z,69.67
2023-04-27T02:29:59.927Z,69.85
2023-04-27T02:35:03.861Z,70.62
2023-04-27T02:40:08.889Z,70.03
2023-04-27T02:45:11.909Z,69.23
2023-04-27T02:50:14.804Z,68.38
2023-04-27T02:55:17.493Z,68.15
2023-04-27T03:00:20.717Z,68.26
2023-04-27T03:05:25.827Z,67.73
2023-04-27T03:10:28.235Z,67.98
2023-04-27T03:15:31.870Z,67.30
2023-04-27T03:20:34.640Z,67.21
2023-04-27T03:25:38.661Z,65.89
2023-04-27T03:30:43.530Z,65.16
2023-04-27T03:35:55.766Z,64.16
2023-04-27T03:41:00.504Z,61.00
2023-04-27T03:46:02.976Z,56.77
2023-04-27T03:51:06.790Z,53.53
2023-04-27T03:56:09.575Z,49.79
2023-04-27T04:01:13.177Z,46.20
2023-04-27T04:06:16.156Z,44.11
2023-04-27T04:11:18.650Z,42.64
2023-04-27T04:16:21.606Z,40.59
2023-04-27T04:21:24.071Z,40.30
2023-04-27T04:26:27.565Z,39.09
2023-04-27T04:31:29.994Z,38.99
2023-04-27T04:36:32.446Z,37.33
2023-04-27T04:41:37.400Z,37.49
2023-04-27T04:46:39.860Z,37.04
2023-04-27T04:51:43.825Z,36.10
2023-04-27T04:56:48.407Z,36.07
2023-04-27T05:01:51.484Z,35.64
2023-04-27T05:06:55.367Z,33.95
2023-04-27T05:12:00.370Z,33.56
2023-04-27T05:17:03.348Z,33.53
2023-04-27T05:22:06.804Z,31.92
2023-04-27T05:27:10.323Z,32.35
2023-04-27T05:32:13.098Z,31.53
2023-04-27T05:37:16.009Z,32.13
2023-04-27T05:42:19.732Z,30.71
2023-04-27T05:47:23.715Z,30.80
2023-04-27T05:52:31.692Z,30.77
2023-04-27T05:57:36.041Z,30.93
2023-04-27T06:02:41.590Z,30.33
2023-04-27T06:07:44.727Z,29.78
2023-04-27T06:12:47.842Z,30.27
2023-04-27T06:17:50.901Z,30.47
2023-04-27T06:22:53.854Z,30.37
2023-04-27T06:27:57.170Z,29.90
2023-04-27T06:32:59.888Z,30.30
2023-04-27T06:38:03.926Z,30.07
2023-04-27T06:43:08.157Z,29.21
2023-04-27T06:48:11.851Z,28.99
2023-04-27T06:53:15.393Z,29.32
2023-04-27T06:58:19.806Z,28.27
2023-04-27T07:03:22.513Z,28.19
2023-04-27T07:08:25.851Z,28.93
2023-04-27T07:13:31.376Z,29.47
2023-04-27T07:18:34.883Z,29.02
2023-04-27T07:23:37.252Z,29.87
2023-04-27T07:28:39.619Z,29.08
2023-04-27T07:33:43.571Z,29.54
2023-04-27T07:38:53.333Z,30.12
2023-04-27T07:43:55.899Z,30.11
2023-04-27T07:49:00.105Z,30.99
2023-04-27T07:54:04.023Z,30.30
2023-04-27T07:59:07.091Z,31.20
2023-04-27T08:04:09.937Z,32.01
2023-04-27T08:09:13.667Z,32.15
2023-04-27T08:14:16.530Z,34.43
2023-04-27T08:19:45.504Z,33.73
2023-04-27T08:24:48.176Z,31.17
2023-04-27T08:29:52.991Z,31.78
2023-04-27T08:34:55.662Z,31.13
2023-04-27T08:39:58.173Z,30.50
2023-04-27T08:45:00.713Z,30.79
2023-04-27T08:50:07.532Z,31.11
2023-04-27T08:55:13.251Z,30.45
2023-04-27T09:00:18.227Z,30.68
2023-04-27T09:05:34.719Z,30.46
2023-04-27T09:10:47.942Z,31.39
2023-04-27T09:15:52.831Z,31.68
2023-04-27T09:20:55.103Z,31.69
2023-04-27T09:26:02.526Z,31.73
2023-04-27T09:31:09.680Z,31.88
2023-04-27T09:36:14.028Z,31.10
2023-04-27T09:41:18.270Z,31.33
2023-04-27T09:46:23.231Z,29.03
2023-04-27T09:51:26.945Z,31.86
2023-04-27T09:57:02.296Z,31.68
2023-04-27T10:02:23.058Z,30.84
2023-04-27T10:07:28.829Z,31.58
2023-04-27T10:12:36.803Z,31.90
2023-04-27T10:17:49.047Z,32.81
2023-04-27T10:22:52.730Z,32.56
2023-04-27T10:28:01.247Z,33.93
2023-04-27T10:33:08.335Z,35.38
2023-04-27T10:38:17.948Z,35.80
2023-04-27T10:43:26.464Z,34.30
2023-04-27T10:48:31.005Z,35.06
2023-04-27T10:53:38.713Z,33.74
2023-04-27T10:58:48.717Z,34.12
2023-04-27T11:04:00.639Z,33.57
2023-04-27T11:09:06.536Z,31.66
2023-04-27T11:14:09.352Z,31.40
2023-04-27T11:19:13.373Z,29.90
2023-04-27T11:24:17.907Z,29.19
2023-04-27T11:29:23.888Z,29.33
2023-04-27T11:34:27.705Z,30.73
2023-04-27T11:39:35.417Z,28.78
2023-04-27T11:44:40.084Z,28.44
2023-04-27T11:49:47.673Z,27.05
2023-04-27T11:54:53.352Z,28.69
2023-04-27T12:00:02.590Z,28.32
2023-04-27T12:05:17.456Z,28.89
2023-04-27T12:10:22.660Z,28.88
2023-04-27T12:15:25.148Z,28.69
2023-04-27T12:20:28.428Z,29.65
2023-04-27T12:25:31.400Z,29.21
2023-04-27T12:30:35.329Z,28.86
2023-04-27T12:35:40.162Z,28.90
2023-04-27T12:40:43.786Z,29.80
2023-04-27T12:45:46.905Z,29.56
2023-04-27T12:50:50.472Z,29.72
2023-04-27T12:55:53.681Z,29.93
2023-04-27T13:01:02.472Z,30.05
2023-04-27T13:06:05.620Z,29.88
2023-04-27T13:11:09.774Z,29.21
2023-04-27T13:16:13.299Z,30.58
2023-04-27T13:21:17.502Z,30.77
2023-04-27T13:26:20.848Z,31.15
2023-04-27T13:31:23.720Z,31.00
2023-04-27T13:36:26.785Z,31.49
2023-04-27T13:41:29.858Z,32.28
2023-04-27T13:46:32.563Z,32.26
2023-04-27T13:51:36.146Z,32.07
2023-04-27T13:56:40.398Z,32.93
2023-04-27T14:01:43.908Z,33.48
2023-04-27T14:06:47.348Z,34.08
2023-04-27T14:12:00.783Z,32.89
2023-04-27T14:17:11.281Z,33.31
2023-04-27T14:22:14.098Z,33.63
2023-04-27T14:27:17.858Z,33.99
2023-04-27T14:32:21.455Z,34.36
2023-04-27T14:37:25.178Z,34.68
2023-04-27T14:42:27.703Z,35.22
2023-04-27T14:47:31.834Z,34.93
2023-04-27T14:52:34.748Z,34.71
2023-04-27T14:57:37.870Z,34.53
2023-04-27T15:02:41.610Z,34.65
2023-04-27T15:07:45.150Z,34.93
2023-04-27T15:12:48.806Z,34.98
2023-04-27T15:17:51.550Z,35.62
2023-04-27T15:22:54.574Z,36.28
2023-04-27T15:27:58.744Z,36.75
2023-04-27T15:33:01.094Z,36.87
2023-04-27T15:38:04.596Z,37.42
2023-04-27T15:43:07.155Z,37.55
2023-04-27T15:48:12.367Z,38.62
2023-04-27T15:53:14.792Z,38.51
2023-04-27T15:58:17.634Z,38.81
2023-04-27T16:03:20.046Z,39.48
2023-04-27T16:08:22.692Z,39.74
2023-04-27T16:13:25.281Z,40.03
2023-04-27T16:18:27.587Z,40.61
2023-04-27T16:23:30.041Z,41.84
2023-04-27T16:28:33.433Z,41.24
2023-04-27T16:33:36.461Z,42.38
2023-04-27T16:38:39.563Z,44.19
2023-04-27T16:43:41.921Z,44.50
2023-04-27T16:48:44.834Z,45.92
2023-04-27T16:53:47.666Z,46.34
2023-04-27T16:58:50.050Z,46.29
2023-04-27T17:03:52.393Z,46.16
2023-04-27T17:08:56.265Z,46.40
2023-04-27T17:13:58.885Z,47.03
2023-04-27T17:19:01.702Z,47.01
2023-04-27T17:24:05.636Z,48.14
2023-04-27T17:29:08.222Z,47.33
2023-04-27T17:34:12.038Z,47.21
2023-04-27T17:39:14.949Z,47.58
2023-04-27T17:44:18.399Z,48.03
2023-04-27T17:49:20.827Z,48.93
2023-04-27T17:54:23.064Z,50.06
2023-04-27T17:59:25.647Z,49.49
2023-04-27T18:04:28.206Z,50.22
2023-04-27T18:09:33.012Z,50.29
2023-04-27T18:14:35.716Z,49.64
2023-04-27T18:19:38.215Z,48.83
2023-04-27T18:24:41.728Z,49.32
2023-04-27T18:29:44.177Z,50.69
2023-04-27T18:34:46.545Z,50.97
2023-04-27T18:39:49.939Z,51.31
2023-04-27T18:44:59.942Z,51.44
2023-04-27T18:50:03.742Z,52.22
2023-04-27T18:55:07.063Z,52.04
2023-04-27T19:00:11.916Z,52.50
2023-04-27T19:05:16.110Z,52.52
2023-04-27T19:10:18.448Z,52.52
2023-04-27T19:15:22.365Z,52.11
2023-04-27T19:20:24.611Z,51.24
2023-04-27T19:25:30.063Z,51.55
2023-04-27T19:30:32.748Z,51.05
2023-04-27T19:35:35.021Z,51.03
2023-04-27T19:40:37.843Z,49.80
2023-04-27T19:45:42.213Z,48.72
2023-04-27T19:50:44.650Z,47.62
2023-04-27T19:55:47.103Z,47.07
2023-04-27T20:00:49.901Z,47.36
2023-04-27T20:05:53.293Z,48.08
2023-04-27T20:10:55.605Z,47.74
2023-04-27T20:15:58.452Z,48.08
2023-04-27T20:21:01.849Z,48.41
2023-04-27T20:26:04.610Z,48.77
2023-04-27T20:31:07.979Z,48.95
2023-04-27T20:36:17.200Z,48.84
2023-04-27T20:41:22.142Z,48.91
2023-04-27T20:46:24.865Z,48.95
2023-04-27T20:51:28.082Z,48.56
2023-04-27T20:56:34.040Z,48.51
2023-04-27T21:01:36.331Z,47.92
2023-04-27T21:06:38.751Z,47.73
2023-04-27T21:11:42.229Z,48.13
2023-04-27T21:16:44.914Z,47.82
2023-04-27T21:21:47.193Z,48.16
2023-04-27T21:26:51.672Z,48.15
2023-04-27T21:31:54.338Z,48.04
2023-04-27T21:36:58.647Z,48.51
2023-04-27T21:42:01.194Z,48.84
2023-04-27T21:47:03.507Z,48.98
2023-04-27T21:52:06.832Z,48.66
2023-04-27T21:57:09.106Z,49.29
2023-04-27T22:02:12.098Z,49.34
2023-04-27T22:07:14.383Z,49.79
2023-04-27T22:12:17.319Z,50.24
2023-04-27T22:17:20.752Z,50.91
2023-04-27T22:22:23.966Z,51.03
2023-04-27T22:27:35.363Z,50.91
2023-04-27T22:32:45.102Z,51.11
2023-04-27T22:37:49.131Z,51.14
2023-04-27T22:42:52.602Z,50.89
2023-04-27T22:47:54.960Z,50.46
2023-04-27T22:52:57.948Z,50.39
2023-04-27T22:58:00.861Z,50.48
2023-04-27T23:03:04.003Z,50.29
2023-04-27T23:08:06.905Z,50.60
2023-04-27T23:13:13.574Z,50.38
2023-04-27T23:18:16.465Z,50.90
2023-04-27T23:23:19.407Z,50.99
2023-04-27T23:28:23.393Z,51.10
2023-04-27T23:33:26.324Z,51.49
2023-04-27T23:38:28.722Z,51.65
2023-04-27T23:43:31.882Z,51.75
2023-04-27T23:48:34.689Z,51.97
2023-04-27T23:53:37.610Z,52.29
2023-04-27T23:58:41.739Z,52.46
